Main page
METAR-TAF:

METAR-TAF

Airports :

Győr-Pér International Airport

Győr, Hungary

latitude: 47-37-28N, longitude: 017-48-49E, elevation: 129 m

Current weather observation

The report was made 46 minutes ago, at 21:15 UTC
Wind 3 kt from the East
Temperature 12°C
Humidity 94%
Pressure 1020 hPa
Visibility 10 km or more
no clouds below 1500 m and no cumulonimbus

METAR: LHPR 212115Z AUTO 09003KT CAVOK 12/11 Q1020

Time: 00:01 (22:01 UTC)

Forecast

The report was made 4 hours and 46 minutes ago, at 17:15 UTC
Forecast valid from 21 at 18 UTC to 22 at 03 UTC
Wind 3 kt from variable directions
Visibility 10 km or more
no clouds below 1500 m and no cumulonimbus
Becoming
from 21 at 21 UTC to 21 at 24 UTC
Visibility: 5000 m
mist
Becoming
from 22 at 00 UTC to 22 at 03 UTC
Visibility: 2000 m
Scattered clouds at a height of 200 ft
mist

TAF: LHPR 211715Z 2118/2203 VRB03KT CAVOK BECMG 2121/2124 5000 BR BECMG 2200/2203 2000 BR SCT002

Weather observations and forecasts of more than 4000 airports (METAR and TAF reports).

The available stations are represented by yellow and red dots on the map.

Hover mouse over dot to see the name of the station.

Then click to see weather observations and forecasts.

To change the map : click on the green buttons with a black cross to zoom in, on the green button with a dash to zoom out, or on the green arrows for adjacent maps.


METAR-TAF: